Central Oregon RPC :: LAKEVIEW, OR A

liberation: 2021-05-01  08:30     latitude: 42.211122     longitude: -120.355558 65 birds
# LOFT PRING MILES ARRIVAL SPEED ToWin
1 ROCKY TOP AU19-ARPU-29022 145.004 2021-05-01 11:41:57.606 1329.483 00:00:00
2 ROCKY TOP AU19-ARPU-29027 145.004 2021-05-01 11:41:58.874 1329.337 00:00:01
3 ROCKY TOP AU19-CORP-4465 145.004 2021-05-01 11:43:19.689 1320.075 00:01:22
4 ROCKY TOP AU20-CORP-4433 145.004 2021-05-01 11:43:56.771 1315.869 00:01:59
5 STEELE LOFT AU20-CORP-5032 152.432 2021-05-01 11:54:30.584 1311.821 00:02:43
6 STEELE LOFT AU19-CORP-4007 152.432 2021-05-01 11:54:37.596 1311.072 00:02:50
7 STEELE LOFT AU20-AVI-19520 152.432 2021-05-01 11:54:40.185 1310.795 00:02:53
8 STEELE LOFT AU19-AVI-19525 152.432 2021-05-01 11:54:40.296 1310.783 00:02:53
9 STEELE LOFT AU19-CORP-4006 152.432 2021-05-01 11:54:49.374 1309.815 00:03:02
10 TOPIGEONUSA AU19-CORP-4907 152.123 2021-05-01 11:56:10.344 1298.601 00:04:47
11 STEELE LOFT AU20-CORP-5034 152.432 2021-05-01 11:57:44.377 1291.425 00:05:57
12 STEELE LOFT AU20-CORP-5080 152.432 2021-05-01 12:00:48.717 1272.604 00:09:01
13 TOPIGEONUSA AU20-CORP-4378 152.123 2021-05-01 12:01:46.664 1264.230 00:10:24
14 AMERICAN LOFT AU19-CORP-4647 148.79 2021-05-01 11:57:14.812 1263.570 00:10:16
15 TOPIGEONUSA AU20-CORP-4830 152.123 2021-05-01 12:07:25.392 1231.404 00:16:02
16 TIM GRAVES AU17-SWWR-7335 143.484 2021-05-01 11:56:43.538 1221.583 00:16:47
17 TIM GRAVES AU15-CORP-3096 143.484 2021-05-01 11:56:45.184 1221.421 00:16:48
18 ROCKY TOP AU18-CORP-3335 145.004 2021-05-01 12:02:48.989 1199.192 00:20:51
19 ROCKY TOP AU19-CORP-4421 145.004 2021-05-01 12:03:00.426 1198.118 00:21:03
20 STEELE LOFT AU19-CORP-4039 152.432 2021-05-01 12:14:00.444 1197.640 00:22:13
21 ROCKY TOP AU18-CORP-3334 145.004 2021-05-01 12:03:30.570 1195.299 00:21:33
22 STEELE LOFT AU20-CORP-5017 152.432 2021-05-01 12:14:40.317 1194.097 00:22:53
23 STEELE LOFT AU19-CORP-4008 152.432 2021-05-01 12:14:44.625 1193.716 00:22:57
24 ROCKY TOP AU20-CORP-4451 145.004 2021-05-01 12:04:38.008 1189.040 00:22:40
25 RUETER FAMILY LOFT AU20-CORP-4574 178.741 2021-05-01 12:56:20.797 1181.106 00:29:44
26 TOPIGEONUSA AU20-CORP-4310 152.123 2021-05-01 12:16:42.162 1180.999 00:25:19
27 STEELE LOFT AU19-CORP-4022 152.432 2021-05-01 12:18:13.224 1175.531 00:26:26
28 TOPIGEONUSA AU19-CORP-5134 152.123 2021-05-01 12:20:10.128 1163.215 00:28:47
29 TIM GRAVES AU15-ARPU-14510 143.484 2021-05-01 12:07:25.937 1161.431 00:27:29
30 AMERICAN LOFT AU19-CORP-4711 148.79 2021-05-01 12:17:12.275 1152.577 00:30:14
31 AMERICAN LOFT AU19-CORP-4605 148.79 2021-05-01 12:17:14.785 1152.365 00:30:16
32 TOPIGEONUSA AU20-CORP-4373 152.123 2021-05-01 12:22:43.165 1150.466 00:31:20
33 AMERICAN LOFT AU19-CORP-4652 148.79 2021-05-01 12:20:01.767 1138.423 00:33:03
34 AMERICAN LOFT AU18-CORP-2549 148.79 2021-05-01 12:25:12.338 1113.370 00:38:14
35 AMERICAN LOFT AU19-CORP-4699 148.79 2021-05-01 12:58:32.599 975.153 01:11:34
36 ROCKY TOP AU18-CORP-3386 145.004 2021-05-01 12:54:32.821 964.697 01:12:35
37 RUETER FAMILY LOFT AU20-CORP-4580 178.741 2021-05-01 14:02:07.343 947.191 01:35:30
38 RUETER FAMILY LOFT AU20-CORP-4527 178.741 2021-05-01 14:04:31.500 940.389 01:37:54
39 ROCKY TOP AU14-CORP-1542 145.004 2021-05-01 13:05:48.921 925.285 01:23:51
40 AMERICAN LOFT AU19-CORP-4745 148.79 2021-05-01 13:19:35.327 904.285 01:32:37
41 TOPIGEONUSA AU20-CORP-4372 152.123 2021-05-01 13:30:08.197 892.046 01:38:45
42 RUETER FAMILY LOFT AU18-CORP-2744 178.741 2021-05-01 14:27:28.724 880.006 02:00:51
43 TOPIGEONUSA AU20-CORP-4375 152.123 2021-05-01 13:58:56.701 813.923 02:07:34
44 RUETER FAMILY LOFT AU20-CORP-4566 178.741 2021-05-01 15:09:16.718 787.880 02:42:39
45 RUETER FAMILY LOFT AU19-CORP-5413 178.741 2021-05-01 15:19:41.366 767.858 02:53:04
46 STEELE LOFT AU19-CORP-4035 152.432 2021-05-01 14:22:34.284 760.924 02:30:47
47 ROCKY TOP AU19-CORP-4431 145.004 2021-05-01 14:07:09.217 756.948 02:25:12
48 TOPIGEONUSA AU19-CORP-5151 152.123 2021-05-01 14:36:47.715 729.932 02:45:25
49 RUETER FAMILY LOFT AU20-CORP-4635 178.741 2021-05-01 16:26:48.991 659.758 04:00:12
50 AMERICAN LOFT AU20-CORP-5530 148.79 2021-05-01 15:10:25.297 653.988 03:23:27
51 AMERICAN LOFT AU19-CORP-4681 148.79 2021-05-01 16:29:44.053 545.867 04:42:46
52 AMERICAN LOFT AU19-CORP-4706 148.79 2021-05-02 07:19:22.989 313.343 10:38:46
53 TOPIGEONUSA AU20-CORP-5027 152.123 2021-05-02 16:28:27.199 193.338 19:43:25
AMERICAN LOFT AU17-CORP-0177 0 0000-00-00 00:00:00.000 0.000 00:00:00
AMERICAN LOFT AU20-CORP-5445 0 0000-00-00 00:00:00.000 0.000 00:00:00
ROCKY TOP AU18-CORP-3385 0 0000-00-00 00:00:00.000 0.000 00:00:00
RUETER FAMILY LOFT AU19-CORP-5432 0 0000-00-00 00:00:00.000 0.000 00:00:00
RUETER FAMILY LOFT AU20-CORP-4683 0 0000-00-00 00:00:00.000 0.000 00:00:00
TIM GRAVES AU17-CORP-0879 0 0000-00-00 00:00:00.000 0.000 00:00:00
TIM GRAVES AU20-CORP-3068 0 0000-00-00 00:00:00.000 0.000 00:00:00
TIM GRAVES AU20-CORP-4720 0 0000-00-00 00:00:00.000 0.000 00:00:00
TIM GRAVES AU20-CORP-4725 0 0000-00-00 00:00:00.000 0.000 00:00:00
TIM GRAVES AU20-CORP-4742 0 0000-00-00 00:00:00.000 0.000 00:00:00
TOPIGEONUSA AU20-CORP-4324 0 0000-00-00 00:00:00.000 0.000 00:00:00
TOPIGEONUSA AU20-CORP-4329 0 0000-00-00 00:00:00.000 0.000 00:00:00